Anthem, AZ

5:21 PM MST on October 25, 2014 (GMT -0700)
Anthem Ironwood | Change Station
CLOSE
Current Station
Personal Weather Station
Location: Anthem, AZ
Elevation: 1975 ft
Nearby Weather Stations

Elev 1975 ft 33.86 °N, 112.10 °W | Updated 6 minutes ago

Clear
Clear
88.3 °F
Feels Like 85 °F
N
0.0
Wind Variable Wind from WNW
Gusts 2.0 mph

Today
High -- | Low -- °F
--% Chance of Precip.
Yesterday
High -- | Low -- °F
Precip. -- in
6:41 AM 5:42 PM
Waxing Crescent, 5% visible
Pressure 29.85 in
Visibility 10.0 miles
Clouds Clear
Heat Index 85 °F
Dew Point 49 °F
Humidity 26%
Rainfall 0.00 in
Snow Depth Not available.
UV 0 out of 12
Pollen 5.40 out of 12
Ozone Good
PM2.5 Good
Flu Activity No Activity
METAR KDVT 252353Z 00000KT 10SM CLR 33/08 A2992 RMK AO2 SLP108 T03280083 10333 20289 56016

More Conditions Fewer Conditions

Pressure 29.85 in
Visibility 10.0 miles
Clouds Clear
Heat Index 85 °F
Dew Point 49 °F
Humidity 26%
Rainfall 0.00 in
Snow Depth Not available.
UV 0 out of 12
Pollen 5.40 out of 12
Ozone Good
PM2.5 Good
Flu Activity No Activity
METAR KDVT 252353Z 00000KT 10SM CLR 33/08 A2992 RMK AO2 SLP108 T03280083 10333 20289 56016

More Conditions Fewer Conditions

10-Day Weather Forecast

Almanac

Astronomy

Oct. 25, 2014 Rise Set
Actual Time 6:41 AM MST 5:42 PM MST
Civil Twilight 6:15 AM MST 6:08 PM MST
Nautical Twilight 5:46 AM MST 6:37 PM MST
Astronomical Twilight 5:17 AM MST 7:06 PM MST
Moon 8:20 AM MST (10/25) 7:12 PM MST (10/25)
Length of Visible Light 11h 52m
Length of Day
11h 01m
Tomorrow will be 1m 55s shorter.
Waxing Crescent, 5% of the Moon is Illuminated
Today
Waxing Crescent
Oct 30
First Quarter
Nov 6
Full
Nov 14
Last Quarter
Nov 22
New

Today's Extremes

State Highs State Lows

Community

WunderPhotos

Upload Photos

1,765,039 photos uploaded!

Nearby

Air Quality

  Air Quality AQ Index Pollutant
Yesterday Moderate
PM2.5
Yesterday Good
OZONE
Current Good
OZONE
Current Good
PM2.5
Saturday Good
PM2.5
Saturday Good
OZONE
Saturday Good
CO
Sunday Good
PM2.5
Sunday Good
OZONE
Sunday Good
CO

Snow Depth

Station Depth Elevation
Baker Butte 0 in 7300 ft
Baldy 1 in 9125 ft
Hannagan Meadows 0 in 9020 ft
Beaver Head 0 in 7990 ft

Earthquake Activity

City Distance Mag. Time & Date
No recent earthquake activity has been reported nearby.
Minimum magnitude displayed is 2.5.

Coastal Water Temperatures

Place Temperature
No Stations Reporting

Nearby Weather Stations